sensor_id;sensor_type;location;lat;lon;timestamp;pressure;altitude;pressure_sealevel;temperature;humidity
10071;BME280;5074;53.720;10.014;2022-08-07T00:00:24;102297.78;;;10.91;100.00
10071;BME280;5074;53.720;10.014;2022-08-07T00:02:53;102296.06;;;10.84;100.00
10071;BME280;5074;53.720;10.014;2022-08-07T00:05:23;102290.88;;;10.73;100.00
10071;BME280;5074;53.720;10.014;2022-08-07T00:07:53;102291.00;;;10.61;100.00
10071;BME280;5074;53.720;10.014;2022-08-07T00:10:26;102289.41;;;10.45;100.00
10071;BME280;5074;53.720;10.014;2022-08-07T00:12:58;102287.75;;;10.26;100.00
10071;BME280;5074;53.720;10.014;2022-08-07T00:15:29;102288.69;;;10.25;100.00
10071;BME280;5074;53.720;10.014;2022-08-07T00:18:12;102279.81;;;10.20;100.00
10071;BME280;5074;53.720;10.014;2022-08-07T00:20:46;102280.66;;;10.22;100.00
10071;BME280;5074;53.720;10.014;2022-08-07T00:23:16;102276.06;;;10.43;100.00
10071;BME280;5074;53.720;10.014;2022-08-07T00:25:47;102276.81;;;10.53;100.00
10071;BME280;5074;53.720;10.014;2022-08-07T00:28:26;102280.25;;;10.66;100.00
10071;BME280;5074;53.720;10.014;2022-08-07T00:31:01;102285.50;;;10.75;100.00
10071;BME280;5074;53.720;10.014;2022-08-07T00:33:39;102285.53;;;10.69;100.00
10071;BME280;5074;53.720;10.014;2022-08-07T00:36:07;102276.75;;;10.60;100.00
10071;BME280;5074;53.720;10.014;2022-08-07T00:38:37;102284.84;;;10.54;100.00
10071;BME280;5074;53.720;10.014;2022-08-07T00:41:06;102275.19;;;10.39;100.00
10071;BME280;5074;53.720;10.014;2022-08-07T00:43:41;102257.53;;;10.21;100.00
10071;BME280;5074;53.720;10.014;2022-08-07T00:46:29;102275.44;;;10.10;100.00
10071;BME280;5074;53.720;10.014;2022-08-07T00:49:00;102279.13;;;9.97;100.00
10071;BME280;5074;53.720;10.014;2022-08-07T00:51:29;102279.00;;;10.09;100.00
10071;BME280;5074;53.720;10.014;2022-08-07T00:54:19;102281.63;;;10.14;100.00
10071;BME280;5074;53.720;10.014;2022-08-07T00:56:49;102279.88;;;10.09;100.00
10071;BME280;5074;53.720;10.014;2022-08-07T00:59:19;102286.19;;;10.02;100.00
10071;BME280;5074;53.720;10.014;2022-08-07T01:02:03;102282.66;;;10.00;100.00
10071;BME280;5074;53.720;10.014;2022-08-07T01:04:39;102281.81;;;9.95;100.00
10071;BME280;5074;53.720;10.014;2022-08-07T01:07:10;102270.28;;;9.88;100.00
10071;BME280;5074;53.720;10.014;2022-08-07T01:09:40;102287.09;;;10.03;100.00
10071;BME280;5074;53.720;10.014;2022-08-07T01:12:28;102280.84;;;10.02;100.00
10071;BME280;5074;53.720;10.014;2022-08-07T01:14:57;102281.81;;;9.92;100.00
10071;BME280;5074;53.720;10.014;2022-08-07T01:17:30;102284.53;;;9.87;100.00
10071;BME280;5074;53.720;10.014;2022-08-07T01:20:03;102273.81;;;9.95;100.00
10071;BME280;5074;53.720;10.014;2022-08-07T01:22:35;102271.13;;;9.97;100.00
10071;BME280;5074;53.720;10.014;2022-08-07T01:25:24;102265.78;;;9.94;100.00
10071;BME280;5074;53.720;10.014;2022-08-07T01:28:13;102272.03;;;9.93;100.00
10071;BME280;5074;53.720;10.014;2022-08-07T01:30:42;102267.53;;;9.98;100.00
10071;BME280;5074;53.720;10.014;2022-08-07T01:33:12;102279.13;;;9.98;100.00
10071;BME280;5074;53.720;10.014;2022-08-07T01:35:41;102269.28;;;10.00;100.00
10071;BME280;5074;53.720;10.014;2022-08-07T01:38:22;102270.31;;;9.85;100.00
10071;BME280;5074;53.720;10.014;2022-08-07T01:40:53;102268.53;;;9.84;100.00
10071;BME280;5074;53.720;10.014;2022-08-07T01:43:22;102272.13;;;9.82;100.00
10071;BME280;5074;53.720;10.014;2022-08-07T01:45:52;102266.75;;;9.88;100.00
10071;BME280;5074;53.720;10.014;2022-08-07T01:48:25;102267.69;;;9.82;100.00
10071;BME280;5074;53.720;10.014;2022-08-07T01:50:59;102264.19;;;9.72;100.00
10071;BME280;5074;53.720;10.014;2022-08-07T01:53:53;102268.66;;;9.69;100.00
10071;BME280;5074;53.720;10.014;2022-08-07T01:56:42;102275.81;;;9.65;100.00
10071;BME280;5074;53.720;10.014;2022-08-07T01:59:21;102281.19;;;9.62;100.00
10071;BME280;5074;53.720;10.014;2022-08-07T02:02:00;102272.41;;;9.45;100.00
10071;BME280;5074;53.720;10.014;2022-08-07T02:04:39;102274.28;;;9.29;100.00
10071;BME280;5074;53.720;10.014;2022-08-07T02:07:24;102269.81;;;9.29;100.00
10071;BME280;5074;53.720;10.014;2022-08-07T02:10:15;102275.16;;;9.31;100.00
10071;BME280;5074;53.720;10.014;2022-08-07T02:12:45;102270.69;;;9.36;100.00
10071;BME280;5074;53.720;10.014;2022-08-07T02:15:19;102269.75;;;9.43;100.00
10071;BME280;5074;53.720;10.014;2022-08-07T02:17:52;102267.03;;;9.51;100.00
10071;BME280;5074;53.720;10.014;2022-08-07T02:20:22;102263.47;;;9.52;100.00
10071;BME280;5074;53.720;10.014;2022-08-07T02:22:52;102269.75;;;9.45;100.00
10071;BME280;5074;53.720;10.014;2022-08-07T02:25:28;102269.78;;;9.35;100.00
10071;BME280;5074;53.720;10.014;2022-08-07T02:28:18;102261.75;;;9.43;100.00
10071;BME280;5074;53.720;10.014;2022-08-07T02:30:51;102259.03;;;9.49;100.00
10071;BME280;5074;53.720;10.014;2022-08-07T02:33:22;102254.53;;;9.54;100.00
10071;BME280;5074;53.720;10.014;2022-08-07T02:36:12;102249.19;;;9.54;100.00
10071;BME280;5074;53.720;10.014;2022-08-07T02:38:59;102250.13;;;9.49;100.00
10071;BME280;5074;53.720;10.014;2022-08-07T02:41:44;102246.59;;;9.44;100.00
10071;BME280;5074;53.720;10.014;2022-08-07T02:44:22;102249.34;;;9.33;100.00
10071;BME280;5074;53.720;10.014;2022-08-07T02:47:01;102241.31;;;9.33;100.00
10071;BME280;5074;53.720;10.014;2022-08-07T02:49:30;102242.19;;;9.38;100.00
10071;BME280;5074;53.720;10.014;2022-08-07T02:52:22;102241.22;;;9.48;100.00
10071;BME280;5074;53.720;10.014;2022-08-07T02:55:00;102247.44;;;9.50;100.00
10071;BME280;5074;53.720;10.014;2022-08-07T02:57:33;102245.66;;;9.51;100.00
10071;BME280;5074;53.720;10.014;2022-08-07T03:00:04;102243.94;;;9.45;100.00
10071;BME280;5074;53.720;10.014;2022-08-07T03:02:39;102235.22;;;9.14;100.00
10071;BME280;5074;53.720;10.014;2022-08-07T03:05:22;102243.22;;;9.21;100.00
10071;BME280;5074;53.720;10.014;2022-08-07T03:07:51;102240.56;;;9.14;100.00
10071;BME280;5074;53.720;10.014;2022-08-07T03:10:36;102235.28;;;9.08;100.00
10071;BME280;5074;53.720;10.014;2022-08-07T03:13:14;102237.06;;;9.01;100.00
10071;BME280;5074;53.720;10.014;2022-08-07T03:15:47;102237.06;;;9.02;100.00
10071;BME280;5074;53.720;10.014;2022-08-07T03:18:24;102241.47;;;9.11;100.00
10071;BME280;5074;53.720;10.014;2022-08-07T03:21:03;102237.91;;;9.12;100.00
10071;BME280;5074;53.720;10.014;2022-08-07T03:23:37;102238.88;;;8.99;100.00
10071;BME280;5074;53.720;10.014;2022-08-07T03:26:28;102237.97;;;9.03;100.00
10071;BME280;5074;53.720;10.014;2022-08-07T03:29:01;102236.22;;;8.97;100.00
10071;BME280;5074;53.720;10.014;2022-08-07T03:31:30;102234.50;;;8.89;100.00
10071;BME280;5074;53.720;10.014;2022-08-07T03:34:10;102226.50;;;8.82;100.00
10071;BME280;5074;53.720;10.014;2022-08-07T03:36:49;102230.06;;;8.86;100.00
10071;BME280;5074;53.720;10.014;2022-08-07T03:39:19;102238.97;;;8.79;100.00
10071;BME280;5074;53.720;10.014;2022-08-07T03:42:10;102232.75;;;8.75;100.00
10071;BME280;5074;53.720;10.014;2022-08-07T03:44:40;102237.25;;;8.61;100.00
10071;BME280;5074;53.720;10.014;2022-08-07T03:47:19;102235.50;;;8.60;100.00
10071;BME280;5074;53.720;10.014;2022-08-07T03:49:48;102239.06;;;8.52;100.00
10071;BME280;5074;53.720;10.014;2022-08-07T03:52:21;102245.28;;;8.51;100.00
10071;BME280;5074;53.720;10.014;2022-08-07T03:54:53;102246.16;;;8.50;100.00
10071;BME280;5074;53.720;10.014;2022-08-07T03:57:32;102248.84;;;8.50;100.00
10071;BME280;5074;53.720;10.014;2022-08-07T04:00:22;102244.38;;;8.59;100.00
10071;BME280;5074;53.720;10.014;2022-08-07T04:02:56;102245.28;;;8.62;100.00
10071;BME280;5074;53.720;10.014;2022-08-07T04:05:30;102244.34;;;8.73;100.00
10071;BME280;5074;53.720;10.014;2022-08-07T04:08:09;102247.00;;;8.71;100.00
10071;BME280;5074;53.720;10.014;2022-08-07T04:10:38;102256.75;;;8.75;100.00
10071;BME280;5074;53.720;10.014;2022-08-07T04:13:10;102253.16;;;8.85;100.00
10071;BME280;5074;53.720;10.014;2022-08-07T04:15:43;102259.44;;;8.69;100.00
10071;BME280;5074;53.720;10.014;2022-08-07T04:18:14;102262.13;;;8.63;100.00
10071;BME280;5074;53.720;10.014;2022-08-07T04:21:03;102256.78;;;8.66;100.00
10071;BME280;5074;53.720;10.014;2022-08-07T04:23:33;102257.66;;;8.68;100.00
10071;BME280;5074;53.720;10.014;2022-08-07T04:26:22;102263.00;;;8.66;100.00
10071;BME280;5074;53.720;10.014;2022-08-07T04:28:54;102262.13;;;8.63;100.00
10071;BME280;5074;53.720;10.014;2022-08-07T04:31:26;102265.66;;;8.71;100.00
10071;BME280;5074;53.720;10.014;2022-08-07T04:34:14;102263.88;;;8.73;100.00
10071;BME280;5074;53.720;10.014;2022-08-07T04:36:50;102270.97;;;8.79;100.00
10071;BME280;5074;53.720;10.014;2022-08-07T04:39:18;102269.97;;;8.97;100.00
10071;BME280;5074;53.720;10.014;2022-08-07T04:41:51;102276.16;;;9.08;100.00
10071;BME280;5074;53.720;10.014;2022-08-07T04:44:19;102272.56;;;9.15;100.00
10071;BME280;5074;53.720;10.014;2022-08-07T04:46:59;102279.66;;;9.21;100.00
10071;BME280;5074;53.720;10.014;2022-08-07T04:49:41;102281.41;;;9.25;100.00
10071;BME280;5074;53.720;10.014;2022-08-07T04:52:29;102276.91;;;9.36;100.00
10071;BME280;5074;53.720;10.014;2022-08-07T04:55:07;102267.97;;;9.42;100.00
10071;BME280;5074;53.720;10.014;2022-08-07T04:58:07;102274.09;;;9.58;100.00
10071;BME280;5074;53.720;10.014;2022-08-07T05:01:02;102275.72;;;9.74;100.00
10071;BME280;5074;53.720;10.014;2022-08-07T05:03:45;102284.53;;;9.87;100.00
10071;BME280;5074;53.720;10.014;2022-08-07T05:06:37;102279.16;;;9.95;100.00
10071;BME280;5074;53.720;10.014;2022-08-07T05:09:17;102277.22;;;10.11;100.00
10071;BME280;5074;53.720;10.014;2022-08-07T05:12:09;102275.34;;;10.21;100.00
10071;BME280;5074;53.720;10.014;2022-08-07T05:14:53;102269.91;;;10.30;100.00
10071;BME280;5074;53.720;10.014;2022-08-07T05:17:31;102281.38;;;10.45;100.00
10071;BME280;5074;53.720;10.014;2022-08-07T05:20:23;102273.25;;;10.54;100.00
10071;BME280;5074;53.720;10.014;2022-08-07T05:22:56;102275.81;;;10.65;100.00
10071;BME280;5074;53.720;10.014;2022-08-07T05:25:28;102276.59;;;10.73;100.00
10071;BME280;5074;53.720;10.014;2022-08-07T05:28:19;102285.41;;;10.83;100.00
10071;BME280;5074;53.720;10.014;2022-08-07T05:30:53;102282.53;;;10.98;100.00
10071;BME280;5074;53.720;10.014;2022-08-07T05:33:22;102280.53;;;11.16;100.00
10071;BME280;5074;53.720;10.014;2022-08-07T05:35:54;102287.53;;;11.24;100.00
10071;BME280;5074;53.720;10.014;2022-08-07T05:38:23;102281.16;;;11.35;100.00
10071;BME280;5074;53.720;10.014;2022-08-07T05:41:12;102283.63;;;11.49;100.00
10071;BME280;5074;53.720;10.014;2022-08-07T05:43:45;102282.59;;;11.57;100.00
10071;BME280;5074;53.720;10.014;2022-08-07T05:46:35;102282.38;;;11.71;100.00
10071;BME280;5074;53.720;10.014;2022-08-07T05:49:05;102282.22;;;11.82;100.00
10071;BME280;5074;53.720;10.014;2022-08-07T05:51:40;102280.31;;;11.90;100.00
10071;BME280;5074;53.720;10.014;2022-08-07T05:54:12;102290.88;;;11.99;100.00
10071;BME280;5074;53.720;10.014;2022-08-07T05:57:01;102279.13;;;12.08;100.00
10071;BME280;5074;53.720;10.014;2022-08-07T05:59:31;102275.41;;;12.15;100.00
10071;BME280;5074;53.720;10.014;2022-08-07T06:02:24;102278.88;;;12.22;100.00
10071;BME280;5074;53.720;10.014;2022-08-07T06:04:58;102268.09;;;12.25;100.00
10071;BME280;5074;53.720;10.014;2022-08-07T06:07:32;102271.44;;;12.38;100.00
10071;BME280;5074;53.720;10.014;2022-08-07T06:10:21;102267.66;;;12.48;100.00
10071;BME280;5074;53.720;10.014;2022-08-07T06:12:49;102271.97;;;12.57;100.00
10071;BME280;5074;53.720;10.014;2022-08-07T06:15:18;102273.38;;;12.75;100.00
10071;BME280;5074;53.720;10.014;2022-08-07T06:17:47;102269.66;;;12.82;100.00
10071;BME280;5074;53.720;10.014;2022-08-07T06:20:21;102264.13;;;12.92;100.00
10071;BME280;5074;53.720;10.014;2022-08-07T06:23:11;102279.97;;;13.02;100.00
10071;BME280;5074;53.720;10.014;2022-08-07T06:26:00;102278.91;;;13.10;100.00
10071;BME280;5074;53.720;10.014;2022-08-07T06:28:29;102274.31;;;13.16;100.00
10071;BME280;5074;53.720;10.014;2022-08-07T06:30:57;102279.44;;;13.27;100.00
10071;BME280;5074;53.720;10.014;2022-08-07T06:33:26;102276.59;;;13.36;100.00
10071;BME280;5074;53.720;10.014;2022-08-07T06:35:58;102276.41;;;13.44;100.00
10071;BME280;5074;53.720;10.014;2022-08-07T06:38:42;102271.84;;;13.48;100.00
10071;BME280;5074;53.720;10.014;2022-08-07T06:41:34;102283.22;;;13.59;100.00
10071;BME280;5074;53.720;10.014;2022-08-07T06:44:26;102282.09;;;13.69;100.00
10071;BME280;5074;53.720;10.014;2022-08-07T06:47:02;102281.06;;;13.75;100.00
10071;BME280;5074;53.720;10.014;2022-08-07T06:49:38;102274.56;;;13.84;100.00
10071;BME280;5074;53.720;10.014;2022-08-07T06:52:27;102273.50;;;13.91;100.00
10071;BME280;5074;53.720;10.014;2022-08-07T06:55:06;102271.47;;;13.99;100.00
10071;BME280;5074;53.720;10.014;2022-08-07T06:57:58;102275.81;;;14.05;100.00
10071;BME280;5074;53.720;10.014;2022-08-07T07:00:31;102272.09;;;14.11;100.00
10071;BME280;5074;53.720;10.014;2022-08-07T07:03:02;102275.53;;;14.16;100.00
10071;BME280;5074;53.720;10.014;2022-08-07T07:05:40;102271.81;;;14.21;100.00
10071;BME280;5074;53.720;10.014;2022-08-07T07:08:28;102237.91;;;14.16;100.00
10071;BME280;5074;53.720;10.014;2022-08-07T07:11:01;102274.97;;;14.37;100.00
10071;BME280;5074;53.720;10.014;2022-08-07T07:13:50;102266.78;;;14.42;100.00
10071;BME280;5074;53.720;10.014;2022-08-07T07:16:30;102267.50;;;14.49;100.00
10071;BME280;5074;53.720;10.014;2022-08-07T07:19:18;102273.19;;;14.71;100.00
10071;BME280;5074;53.720;10.014;2022-08-07T07:22:09;102274.13;;;14.68;100.00
10071;BME280;5074;53.720;10.014;2022-08-07T07:24:59;102279.38;;;14.73;100.00
10071;BME280;5074;53.720;10.014;2022-08-07T07:27:54;102281.72;;;14.85;100.00
10071;BME280;5074;53.720;10.014;2022-08-07T07:30:33;102278.13;;;14.85;100.00
10071;BME280;5074;53.720;10.014;2022-08-07T07:33:08;102272.88;;;14.80;100.00
10071;BME280;5074;53.720;10.014;2022-08-07T07:35:40;102272.50;;;14.94;100.00
10071;BME280;5074;53.720;10.014;2022-08-07T07:38:30;102275.97;;;14.98;100.00
10071;BME280;5074;53.720;10.014;2022-08-07T07:41:04;102278.72;;;14.96;100.00
10071;BME280;5074;53.720;10.014;2022-08-07T07:43:40;102264.69;;;15.15;100.00
10071;BME280;5074;53.720;10.014;2022-08-07T07:46:30;102272.41;;;15.27;100.00
10071;BME280;5074;53.720;10.014;2022-08-07T07:49:20;102268.75;;;15.28;100.00
10071;BME280;5074;53.720;10.014;2022-08-07T07:52:10;102267.78;;;15.31;100.00
10071;BME280;5074;53.720;10.014;2022-08-07T07:54:42;102267.41;;;15.43;100.00
10071;BME280;5074;53.720;10.014;2022-08-07T07:57:18;102271.38;;;15.59;100.00
10071;BME280;5074;53.720;10.014;2022-08-07T08:00:11;102263.06;;;15.66;100.00
10071;BME280;5074;53.720;10.014;2022-08-07T08:03:01;102259.50;;;15.65;100.00
10071;BME280;5074;53.720;10.014;2022-08-07T08:05:39;102259.22;;;15.74;100.00
10071;BME280;5074;53.720;10.014;2022-08-07T08:08:23;102256.59;;;15.71;100.00
10071;BME280;5074;53.720;10.014;2022-08-07T08:11:07;102253.84;;;15.73;100.00
10071;BME280;5074;53.720;10.014;2022-08-07T08:13:47;102254.72;;;15.75;100.00
10071;BME280;5074;53.720;10.014;2022-08-07T08:16:26;102247.69;;;15.69;100.00
10071;BME280;5074;53.720;10.014;2022-08-07T08:18:57;102250.97;;;15.80;100.00
10071;BME280;5074;53.720;10.014;2022-08-07T08:21:47;102250.84;;;15.84;100.00
10071;BME280;5074;53.720;10.014;2022-08-07T08:24:36;102250.34;;;15.99;100.00
10071;BME280;5074;53.720;10.014;2022-08-07T08:27:43;102244.84;;;16.02;100.00
10071;BME280;5074;53.720;10.014;2022-08-07T08:30:28;102248.56;;;16.23;100.00
10071;BME280;5074;53.720;10.014;2022-08-07T08:33:03;102238.19;;;16.12;100.00
10071;BME280;5074;53.720;10.014;2022-08-07T08:35:44;102246.38;;;16.09;100.00
10071;BME280;5074;53.720;10.014;2022-08-07T08:38:19;102240.41;;;16.25;100.00
10071;BME280;5074;53.720;10.014;2022-08-07T08:41:00;102236.75;;;16.27;100.00
10071;BME280;5074;53.720;10.014;2022-08-07T08:43:34;102240.09;;;16.34;100.00
10071;BME280;5074;53.720;10.014;2022-08-07T08:46:20;102239.13;;;16.37;100.00
10071;BME280;5074;53.720;10.014;2022-08-07T08:49:00;102223.06;;;16.34;100.00
10071;BME280;5074;53.720;10.014;2022-08-07T08:51:35;102227.63;;;16.55;100.00
10071;BME280;5074;53.720;10.014;2022-08-07T08:54:29;102236.56;;;16.57;100.00
10071;BME280;5074;53.720;10.014;2022-08-07T08:57:04;102233.19;;;16.50;100.00
10071;BME280;5074;53.720;10.014;2022-08-07T08:59:44;102229.16;;;16.62;100.00
10071;BME280;5074;53.720;10.014;2022-08-07T09:02:19;102222.19;;;16.57;100.00
10071;BME280;5074;53.720;10.014;2022-08-07T09:05:14;102215.38;;;16.70;100.00
10071;BME280;5074;53.720;10.014;2022-08-07T09:07:47;102221.47;;;16.75;100.00
10071;BME280;5074;53.720;10.014;2022-08-07T09:10:30;102222.44;;;16.74;100.00
10071;BME280;5074;53.720;10.014;2022-08-07T09:13:05;102202.00;;;16.67;100.00
10071;BME280;5074;53.720;10.014;2022-08-07T09:15:43;102223.63;;;16.91;100.00
10071;BME280;5074;53.720;10.014;2022-08-07T09:19:21;102218.09;;;16.94;100.00
10071;BME280;5074;53.720;10.014;2022-08-07T09:22:20;102220.88;;;16.92;100.00
10071;BME280;5074;53.720;10.014;2022-08-07T09:25:20;102219.03;;;16.93;100.00
10071;BME280;5074;53.720;10.014;2022-08-07T09:27:56;102216.13;;;16.99;100.00
10071;BME280;5074;53.720;10.014;2022-08-07T09:30:40;102221.47;;;17.00;100.00
10071;BME280;5074;53.720;10.014;2022-08-07T09:33:31;102221.53;;;16.99;100.00
10071;BME280;5074;53.720;10.014;2022-08-07T09:36:27;102210.00;;;17.17;100.00
10071;BME280;5074;53.720;10.014;2022-08-07T09:39:12;102219.66;;;17.23;100.00
10071;BME280;5074;53.720;10.014;2022-08-07T09:42:08;102218.41;;;17.32;100.00
10071;BME280;5074;53.720;10.014;2022-08-07T09:44:56;102209.59;;;17.27;100.00
10071;BME280;5074;53.720;10.014;2022-08-07T09:47:58;102204.84;;;17.33;100.00
10071;BME280;5074;53.720;10.014;2022-08-07T09:50:49;102201.31;;;17.53;100.00
10071;BME280;5074;53.720;10.014;2022-08-07T09:53:23;102204.03;;;17.53;100.00
10071;BME280;5074;53.720;10.014;2022-08-07T09:56:31;102197.00;;;17.70;100.00
10071;BME280;5074;53.720;10.014;2022-08-07T09:59:21;102202.16;;;17.76;100.00
10071;BME280;5074;53.720;10.014;2022-08-07T10:02:28;102200.66;;;17.91;100.00
10071;BME280;5074;53.720;10.014;2022-08-07T10:05:25;102195.09;;;17.94;100.00
10071;BME280;5074;53.720;10.014;2022-08-07T10:11:33;102183.69;;;17.86;100.00
10071;BME280;5074;53.720;10.014;2022-08-07T10:14:39;102181.44;;;17.97;100.00
10071;BME280;5074;53.720;10.014;2022-08-07T10:17:33;102177.94;;;18.16;100.00
10071;BME280;5074;53.720;10.014;2022-08-07T10:20:37;102176.22;;;18.13;100.00
10071;BME280;5074;53.720;10.014;2022-08-07T10:23:44;102175.34;;;18.33;100.00
10071;BME280;5074;53.720;10.014;2022-08-07T10:26:49;102174.13;;;18.60;98.39
10071;BME280;5074;53.720;10.014;2022-08-07T10:29:53;102172.50;;;18.55;90.17
10071;BME280;5074;53.720;10.014;2022-08-07T10:32:35;102166.47;;;18.49;77.16
10071;BME280;5074;53.720;10.014;2022-08-07T10:35:25;102172.78;;;18.30;76.98
10071;BME280;5074;53.720;10.014;2022-08-07T10:38:25;102161.13;;;18.47;75.03
10071;BME280;5074;53.720;10.014;2022-08-07T10:41:18;102157.66;;;18.64;72.45
10071;BME280;5074;53.720;10.014;2022-08-07T10:44:12;102163.13;;;18.82;73.77
10071;BME280;5074;53.720;10.014;2022-08-07T10:47:00;102162.94;;;19.05;70.71
10071;BME280;5074;53.720;10.014;2022-08-07T10:49:44;102152.22;;;19.21;69.63
10071;BME280;5074;53.720;10.014;2022-08-07T10:52:24;102146.50;;;19.27;70.17
10071;BME280;5074;53.720;10.014;2022-08-07T10:55:09;102150.88;;;19.30;68.70
10071;BME280;5074;53.720;10.014;2022-08-07T10:58:08;102147.94;;;19.35;69.24
10071;BME280;5074;53.720;10.014;2022-08-07T11:00:48;102143.59;;;19.13;67.33
10071;BME280;5074;53.720;10.014;2022-08-07T11:03:37;102128.81;;;19.01;68.70
10071;BME280;5074;53.720;10.014;2022-08-07T11:06:27;102146.97;;;19.18;71.47
10071;BME280;5074;53.720;10.014;2022-08-07T11:09:01;102141.63;;;19.17;68.80
10071;BME280;5074;53.720;10.014;2022-08-07T11:11:43;102138.69;;;19.21;67.89
10071;BME280;5074;53.720;10.014;2022-08-07T11:14:23;102136.06;;;18.82;68.53
10071;BME280;5074;53.720;10.014;2022-08-07T11:17:18;102143.47;;;18.97;67.29
10071;BME280;5074;53.720;10.014;2022-08-07T11:19:54;102132.72;;;18.77;68.19
10071;BME280;5074;53.720;10.014;2022-08-07T11:22:32;102131.31;;;19.06;67.75
10071;BME280;5074;53.720;10.014;2022-08-07T11:25:15;102132.03;;;19.09;66.09
10071;BME280;5074;53.720;10.014;2022-08-07T11:27:53;102127.06;;;19.00;65.43
10071;BME280;5074;53.720;10.014;2022-08-07T11:30:34;102123.56;;;18.98;67.52
10071;BME280;5074;53.720;10.014;2022-08-07T11:33:17;102125.22;;;19.01;68.04
10071;BME280;5074;53.720;10.014;2022-08-07T11:36:17;102121.00;;;18.95;67.29
10071;BME280;5074;53.720;10.014;2022-08-07T11:39:04;102121.56;;;19.02;66.23
10071;BME280;5074;53.720;10.014;2022-08-07T11:41:46;102125.19;;;19.02;67.41
10071;BME280;5074;53.720;10.014;2022-08-07T11:44:37;102115.84;;;19.08;65.97
10071;BME280;5074;53.720;10.014;2022-08-07T11:47:40;102100.66;;;19.40;65.96
10071;BME280;5074;53.720;10.014;2022-08-07T11:50:33;102100.19;;;19.50;63.91
10071;BME280;5074;53.720;10.014;2022-08-07T11:53:17;102110.47;;;19.78;61.90
10071;BME280;5074;53.720;10.014;2022-08-07T11:56:00;102105.72;;;19.83;60.07
10071;BME280;5074;53.720;10.014;2022-08-07T11:59:00;102099.84;;;20.08;59.59
10071;BME280;5074;53.720;10.014;2022-08-07T12:01:59;102107.72;;;20.13;61.39
10071;BME280;5074;53.720;10.014;2022-08-07T12:04:59;102103.44;;;20.25;58.06
10071;BME280;5074;53.720;10.014;2022-08-07T12:07:40;102093.56;;;20.24;55.05
10071;BME280;5074;53.720;10.014;2022-08-07T12:10:24;102090.53;;;19.97;56.57
10071;BME280;5074;53.720;10.014;2022-08-07T12:13:00;102091.69;;;20.08;59.31
10071;BME280;5074;53.720;10.014;2022-08-07T12:15:40;102085.59;;;20.21;57.38
10071;BME280;5074;53.720;10.014;2022-08-07T12:18:34;102090.06;;;20.22;56.31
10071;BME280;5074;53.720;10.014;2022-08-07T12:21:19;102069.94;;;20.26;55.05
10071;BME280;5074;53.720;10.014;2022-08-07T12:24:19;102077.72;;;20.32;56.70
10071;BME280;5074;53.720;10.014;2022-08-07T12:27:08;102078.34;;;20.21;57.55
10071;BME280;5074;53.720;10.014;2022-08-07T12:29:48;102072.19;;;20.34;56.29
10071;BME280;5074;53.720;10.014;2022-08-07T12:32:20;102067.50;;;20.53;55.11
10071;BME280;5074;53.720;10.014;2022-08-07T12:34:57;102063.66;;;20.89;57.35
10071;BME280;5074;53.720;10.014;2022-08-07T12:37:27;102061.19;;;21.31;56.37
10071;BME280;5074;53.720;10.014;2022-08-07T12:40:19;102059.19;;;21.49;55.68
10071;BME280;5074;53.720;10.014;2022-08-07T12:43:09;102055.88;;;21.74;51.99
10071;BME280;5074;53.720;10.014;2022-08-07T12:46:22;102061.13;;;21.77;52.23
10071;BME280;5074;53.720;10.014;2022-08-07T12:49:13;102063.63;;;21.66;49.86
10071;BME280;5074;53.720;10.014;2022-08-07T12:52:05;102058.47;;;21.31;51.93
10071;BME280;5074;53.720;10.014;2022-08-07T12:54:45;102060.47;;;20.97;52.72
10071;BME280;5074;53.720;10.014;2022-08-07T12:57:26;102060.78;;;21.23;53.79
10071;BME280;5074;53.720;10.014;2022-08-07T13:00:16;102060.94;;;21.80;51.80
10071;BME280;5074;53.720;10.014;2022-08-07T13:03:09;102052.63;;;23.23;46.55
10071;BME280;5074;53.720;10.014;2022-08-07T13:06:08;102046.66;;;24.95;42.30
10071;BME280;5074;53.720;10.014;2022-08-07T13:08:58;102049.34;;;26.79;39.61
10071;BME280;5074;53.720;10.014;2022-08-07T13:11:54;102037.22;;;27.68;35.17
10071;BME280;5074;53.720;10.014;2022-08-07T13:14:45;102042.72;;;28.70;33.50
10071;BME280;5074;53.720;10.014;2022-08-07T13:17:28;102042.41;;;28.64;32.83
10071;BME280;5074;53.720;10.014;2022-08-07T13:20:11;102042.50;;;29.70;30.58
10071;BME280;5074;53.720;10.014;2022-08-07T13:22:48;102048.44;;;28.07;32.60
10071;BME280;5074;53.720;10.014;2022-08-07T13:25:25;102043.44;;;25.83;36.85
10071;BME280;5074;53.720;10.014;2022-08-07T13:28:01;102044.41;;;26.50;35.57
10071;BME280;5074;53.720;10.014;2022-08-07T13:30:46;102041.63;;;28.52;33.88
10071;BME280;5074;53.720;10.014;2022-08-07T13:33:35;102030.19;;;27.54;33.92
10071;BME280;5074;53.720;10.014;2022-08-07T13:36:30;102035.50;;;28.89;32.80
10071;BME280;5074;53.720;10.014;2022-08-07T13:39:10;102037.34;;;28.18;32.17
10071;BME280;5074;53.720;10.014;2022-08-07T13:42:01;102034.00;;;27.84;31.87
10071;BME280;5074;53.720;10.014;2022-08-07T13:44:31;102025.69;;;26.67;34.36
10071;BME280;5074;53.720;10.014;2022-08-07T13:47:05;102027.31;;;27.55;33.89
10071;BME280;5074;53.720;10.014;2022-08-07T13:49:43;102032.25;;;27.62;33.13
10071;BME280;5074;53.720;10.014;2022-08-07T13:52:32;102017.25;;;26.70;34.63
10071;BME280;5074;53.720;10.014;2022-08-07T13:55:11;102029.00;;;26.49;35.61
10071;BME280;5074;53.720;10.014;2022-08-07T13:57:57;102025.91;;;26.86;35.25
10071;BME280;5074;53.720;10.014;2022-08-07T14:00:58;102017.25;;;27.66;33.96
10071;BME280;5074;53.720;10.014;2022-08-07T14:03:36;102008.13;;;28.87;30.95